sensor_id;sensor_type;location;lat;lon;timestamp;pressure;altitude;pressure_sealevel;temperature;humidity
48156;BME280;35568;48.104;11.782;2023-07-16T00:00:18;95137.17;;;23.84;43.66
48156;BME280;35568;48.104;11.782;2023-07-16T00:02:44;95141.32;;;23.57;44.17
48156;BME280;35568;48.104;11.782;2023-07-16T00:05:11;95136.26;;;23.42;44.51
48156;BME280;35568;48.104;11.782;2023-07-16T00:07:38;95140.44;;;23.61;44.37
48156;BME280;35568;48.104;11.782;2023-07-16T00:10:05;95142.17;;;23.58;44.33
48156;BME280;35568;48.104;11.782;2023-07-16T00:12:32;95137.68;;;23.44;44.78
48156;BME280;35568;48.104;11.782;2023-07-16T00:14:59;95149.33;;;23.67;44.98
48156;BME280;35568;48.104;11.782;2023-07-16T00:17:26;95152.63;;;23.34;45.23
48156;BME280;35568;48.104;11.782;2023-07-16T00:19:53;95156.88;;;23.46;45.58
48156;BME280;35568;48.104;11.782;2023-07-16T00:22:19;95158.90;;;22.84;46.85
48156;BME280;35568;48.104;11.782;2023-07-16T00:24:46;95160.48;;;22.88;47.05
48156;BME280;35568;48.104;11.782;2023-07-16T00:27:14;95158.30;;;22.97;47.35
48156;BME280;35568;48.104;11.782;2023-07-16T00:29:41;95166.19;;;23.18;46.93
48156;BME280;35568;48.104;11.782;2023-07-16T00:32:08;95180.31;;;22.83;46.86
48156;BME280;35568;48.104;11.782;2023-07-16T00:34:35;95186.28;;;22.77;47.13
48156;BME280;35568;48.104;11.782;2023-07-16T00:37:02;95181.35;;;22.72;47.26
48156;BME280;35568;48.104;11.782;2023-07-16T00:39:29;95185.09;;;23.12;46.89
48156;BME280;35568;48.104;11.782;2023-07-16T00:41:57;95186.31;;;23.09;47.60
48156;BME280;35568;48.104;11.782;2023-07-16T00:44:24;95192.59;;;22.84;47.77
48156;BME280;35568;48.104;11.782;2023-07-16T00:46:51;95198.73;;;22.42;48.03
48156;BME280;35568;48.104;11.782;2023-07-16T00:49:18;95207.25;;;23.08;47.90
48156;BME280;35568;48.104;11.782;2023-07-16T00:51:45;95216.77;;;23.12;47.79
48156;BME280;35568;48.104;11.782;2023-07-16T00:54:13;95222.88;;;23.23;47.59
48156;BME280;35568;48.104;11.782;2023-07-16T00:56:40;95220.41;;;23.49;47.02
48156;BME280;35568;48.104;11.782;2023-07-16T00:59:07;95234.95;;;23.17;47.31
48156;BME280;35568;48.104;11.782;2023-07-16T01:01:34;95246.03;;;23.16;47.37
48156;BME280;35568;48.104;11.782;2023-07-16T01:04:01;95259.47;;;22.79;47.52
48156;BME280;35568;48.104;11.782;2023-07-16T01:06:33;95275.45;;;22.90;47.88
48156;BME280;35568;48.104;11.782;2023-07-16T01:09:03;95306.57;;;22.51;48.63
48156;BME280;35568;48.104;11.782;2023-07-16T01:11:34;95328.70;;;22.21;48.89
48156;BME280;35568;48.104;11.782;2023-07-16T01:14:03;95326.63;;;22.74;48.79
48156;BME280;35568;48.104;11.782;2023-07-16T01:16:30;95338.99;;;22.60;49.28
48156;BME280;35568;48.104;11.782;2023-07-16T01:19:02;95349.13;;;22.72;49.04
48156;BME280;35568;48.104;11.782;2023-07-16T01:21:33;95353.72;;;22.82;48.88
48156;BME280;35568;48.104;11.782;2023-07-16T01:24:20;95362.36;;;22.75;49.00
48156;BME280;35568;48.104;11.782;2023-07-16T01:27:10;95371.15;;;22.62;48.87
48156;BME280;35568;48.104;11.782;2023-07-16T01:29:41;95370.95;;;22.40;48.94
48156;BME280;35568;48.104;11.782;2023-07-16T01:32:09;95375.03;;;22.66;49.27
48156;BME280;35568;48.104;11.782;2023-07-16T01:34:38;95381.87;;;22.74;49.11
48156;BME280;35568;48.104;11.782;2023-07-16T01:37:06;95392.17;;;22.51;49.34
48156;BME280;35568;48.104;11.782;2023-07-16T01:39:33;95408.79;;;22.38;50.06
48156;BME280;35568;48.104;11.782;2023-07-16T01:42:01;95405.59;;;22.55;50.28
48156;BME280;35568;48.104;11.782;2023-07-16T01:44:27;95409.32;;;22.43;50.38
48156;BME280;35568;48.104;11.782;2023-07-16T01:47:08;95411.70;;;22.08;50.71
48156;BME280;35568;48.104;11.782;2023-07-16T01:49:37;95411.81;;;22.10;50.92
48156;BME280;35568;48.104;11.782;2023-07-16T01:52:05;95412.73;;;22.12;51.45
48156;BME280;35568;48.104;11.782;2023-07-16T01:54:32;95415.27;;;22.10;51.10
48156;BME280;35568;48.104;11.782;2023-07-16T01:56:59;95415.64;;;22.00;51.53
48156;BME280;35568;48.104;11.782;2023-07-16T01:59:26;95416.44;;;21.89;51.61
48156;BME280;35568;48.104;11.782;2023-07-16T02:01:52;95417.76;;;21.89;51.71
48156;BME280;35568;48.104;11.782;2023-07-16T02:04:20;95418.82;;;22.08;51.86
48156;BME280;35568;48.104;11.782;2023-07-16T02:06:47;95419.32;;;22.13;51.80
48156;BME280;35568;48.104;11.782;2023-07-16T02:09:14;95418.22;;;21.79;52.06
48156;BME280;35568;48.104;11.782;2023-07-16T02:11:42;95418.65;;;21.60;51.98
48156;BME280;35568;48.104;11.782;2023-07-16T02:14:09;95423.89;;;21.88;51.92
48156;BME280;35568;48.104;11.782;2023-07-16T02:16:36;95426.98;;;21.86;51.98
48156;BME280;35568;48.104;11.782;2023-07-16T02:19:03;95433.33;;;22.05;51.75
48156;BME280;35568;48.104;11.782;2023-07-16T02:21:30;95436.95;;;22.17;52.02
48156;BME280;35568;48.104;11.782;2023-07-16T02:23:57;95440.43;;;22.27;51.61
48156;BME280;35568;48.104;11.782;2023-07-16T02:26:24;95442.93;;;21.95;52.16
48156;BME280;35568;48.104;11.782;2023-07-16T02:28:52;95440.90;;;22.24;52.01
48156;BME280;35568;48.104;11.782;2023-07-16T02:31:19;95441.99;;;22.03;52.14
48156;BME280;35568;48.104;11.782;2023-07-16T02:33:47;95436.28;;;22.29;52.11
48156;BME280;35568;48.104;11.782;2023-07-16T02:36:13;95437.08;;;22.01;52.42
48156;BME280;35568;48.104;11.782;2023-07-16T02:38:40;95441.67;;;22.18;52.22
48156;BME280;35568;48.104;11.782;2023-07-16T02:41:09;95439.75;;;22.20;52.03
48156;BME280;35568;48.104;11.782;2023-07-16T02:43:36;95444.94;;;22.25;51.54
48156;BME280;35568;48.104;11.782;2023-07-16T02:46:03;95444.17;;;22.42;51.17
48156;BME280;35568;48.104;11.782;2023-07-16T02:48:30;95456.34;;;22.24;50.73
48156;BME280;35568;48.104;11.782;2023-07-16T02:50:58;95464.02;;;22.81;50.60
48156;BME280;35568;48.104;11.782;2023-07-16T02:53:25;95470.17;;;22.47;50.77
48156;BME280;35568;48.104;11.782;2023-07-16T02:55:51;95475.68;;;22.50;51.00
48156;BME280;35568;48.104;11.782;2023-07-16T02:58:18;95476.01;;;22.85;50.28
48156;BME280;35568;48.104;11.782;2023-07-16T03:03:00;95470.65;;;23.47;48.58
48156;BME280;35568;48.104;11.782;2023-07-16T03:05:28;95473.72;;;23.35;48.65
48156;BME280;35568;48.104;11.782;2023-07-16T03:07:56;95469.91;;;23.37;48.02
48156;BME280;35568;48.104;11.782;2023-07-16T03:10:23;95468.56;;;23.61;48.01
48156;BME280;35568;48.104;11.782;2023-07-16T03:12:49;95467.76;;;23.29;48.06
48156;BME280;35568;48.104;11.782;2023-07-16T03:15:18;95472.92;;;23.20;48.82
48156;BME280;35568;48.104;11.782;2023-07-16T03:17:45;95478.11;;;23.24;49.28
48156;BME280;35568;48.104;11.782;2023-07-16T03:20:12;95481.16;;;23.37;49.15
48156;BME280;35568;48.104;11.782;2023-07-16T03:22:39;95477.39;;;23.56;48.51
48156;BME280;35568;48.104;11.782;2023-07-16T03:25:07;95474.11;;;23.08;48.70
48156;BME280;35568;48.104;11.782;2023-07-16T03:27:34;95471.63;;;23.21;48.32
48156;BME280;35568;48.104;11.782;2023-07-16T03:30:02;95461.21;;;23.43;48.87
48156;BME280;35568;48.104;11.782;2023-07-16T03:32:28;95461.10;;;23.35;48.53
48156;BME280;35568;48.104;11.782;2023-07-16T03:34:55;95459.49;;;23.26;48.72
48156;BME280;35568;48.104;11.782;2023-07-16T03:37:22;95462.02;;;23.31;47.65
48156;BME280;35568;48.104;11.782;2023-07-16T03:39:49;95470.09;;;23.08;48.71
48156;BME280;35568;48.104;11.782;2023-07-16T03:42:15;95477.74;;;23.46;49.05
48156;BME280;35568;48.104;11.782;2023-07-16T03:44:43;95478.53;;;23.15;49.34
48156;BME280;35568;48.104;11.782;2023-07-16T03:47:11;95483.44;;;23.68;49.28
48156;BME280;35568;48.104;11.782;2023-07-16T03:49:38;95486.24;;;23.67;49.35
48156;BME280;35568;48.104;11.782;2023-07-16T03:52:06;95492.13;;;23.22;49.39
48156;BME280;35568;48.104;11.782;2023-07-16T03:54:33;95500.53;;;23.24;49.43
48156;BME280;35568;48.104;11.782;2023-07-16T03:57:00;95514.56;;;22.81;50.49
48156;BME280;35568;48.104;11.782;2023-07-16T03:59:27;95521.19;;;22.59;51.43
48156;BME280;35568;48.104;11.782;2023-07-16T04:01:54;95526.71;;;22.42;50.07
48156;BME280;35568;48.104;11.782;2023-07-16T04:04:21;95523.53;;;22.12;50.54
48156;BME280;35568;48.104;11.782;2023-07-16T04:06:48;95518.70;;;21.79;50.72
48156;BME280;35568;48.104;11.782;2023-07-16T04:09:15;95520.63;;;21.69;52.42
48156;BME280;35568;48.104;11.782;2023-07-16T04:11:41;95527.41;;;21.27;52.48
48156;BME280;35568;48.104;11.782;2023-07-16T04:14:08;95532.14;;;21.32;52.22
48156;BME280;35568;48.104;11.782;2023-07-16T04:16:35;95531.63;;;21.78;51.70
48156;BME280;35568;48.104;11.782;2023-07-16T04:19:02;95535.70;;;21.83;52.39
48156;BME280;35568;48.104;11.782;2023-07-16T04:21:28;95536.61;;;21.64;52.36
48156;BME280;35568;48.104;11.782;2023-07-16T04:23:55;95539.10;;;21.37;53.02
48156;BME280;35568;48.104;11.782;2023-07-16T04:26:22;95539.88;;;21.56;51.99
48156;BME280;35568;48.104;11.782;2023-07-16T04:28:49;95546.48;;;21.27;52.63
48156;BME280;35568;48.104;11.782;2023-07-16T04:31:15;95549.97;;;21.46;52.44
48156;BME280;35568;48.104;11.782;2023-07-16T04:33:42;95553.71;;;21.62;52.52
48156;BME280;35568;48.104;11.782;2023-07-16T04:36:09;95557.08;;;21.55;52.59
48156;BME280;35568;48.104;11.782;2023-07-16T04:38:36;95560.33;;;21.94;52.25
48156;BME280;35568;48.104;11.782;2023-07-16T04:41:03;95571.51;;;21.63;52.05
48156;BME280;35568;48.104;11.782;2023-07-16T04:43:29;95583.30;;;21.83;52.43
48156;BME280;35568;48.104;11.782;2023-07-16T04:45:56;95578.78;;;21.75;52.21
48156;BME280;35568;48.104;11.782;2023-07-16T04:48:23;95588.94;;;21.86;52.68
48156;BME280;35568;48.104;11.782;2023-07-16T04:50:51;95603.72;;;21.37;53.36
48156;BME280;35568;48.104;11.782;2023-07-16T04:53:18;95606.37;;;21.15;54.15
48156;BME280;35568;48.104;11.782;2023-07-16T04:55:45;95596.40;;;20.99;53.88
48156;BME280;35568;48.104;11.782;2023-07-16T04:58:12;95586.88;;;21.07;52.11
48156;BME280;35568;48.104;11.782;2023-07-16T05:00:39;95589.45;;;20.83;53.53
48156;BME280;35568;48.104;11.782;2023-07-16T05:03:06;95592.23;;;20.95;53.24
48156;BME280;35568;48.104;11.782;2023-07-16T05:05:33;95590.01;;;20.63;54.06
48156;BME280;35568;48.104;11.782;2023-07-16T05:08:00;95597.87;;;20.84;54.26
48156;BME280;35568;48.104;11.782;2023-07-16T05:10:27;95599.98;;;21.10;53.70
48156;BME280;35568;48.104;11.782;2023-07-16T05:12:54;95604.18;;;20.95;53.85
48156;BME280;35568;48.104;11.782;2023-07-16T05:15:22;95604.60;;;20.17;54.32
48156;BME280;35568;48.104;11.782;2023-07-16T05:17:49;95595.72;;;21.29;53.74
48156;BME280;35568;48.104;11.782;2023-07-16T05:20:16;95588.24;;;20.99;53.95
48156;BME280;35568;48.104;11.782;2023-07-16T05:22:42;95590.06;;;21.03;54.24
48156;BME280;35568;48.104;11.782;2023-07-16T05:25:09;95584.71;;;21.08;53.95
48156;BME280;35568;48.104;11.782;2023-07-16T05:27:36;95574.38;;;20.75;54.17
48156;BME280;35568;48.104;11.782;2023-07-16T05:30:03;95577.45;;;20.60;54.83
48156;BME280;35568;48.104;11.782;2023-07-16T05:32:30;95589.29;;;20.78;54.41
48156;BME280;35568;48.104;11.782;2023-07-16T05:34:57;95592.99;;;20.91;54.16
48156;BME280;35568;48.104;11.782;2023-07-16T05:37:24;95588.67;;;21.19;54.36
48156;BME280;35568;48.104;11.782;2023-07-16T05:39:50;95591.42;;;21.26;53.64
48156;BME280;35568;48.104;11.782;2023-07-16T05:42:17;95595.76;;;21.86;52.77
48156;BME280;35568;48.104;11.782;2023-07-16T05:44:47;95595.58;;;21.75;52.60
48156;BME280;35568;48.104;11.782;2023-07-16T05:47:14;95600.05;;;21.40;53.00
48156;BME280;35568;48.104;11.782;2023-07-16T05:49:41;95598.64;;;21.21;53.86
48156;BME280;35568;48.104;11.782;2023-07-16T05:52:08;95599.99;;;21.35;54.07
48156;BME280;35568;48.104;11.782;2023-07-16T05:54:35;95602.15;;;21.71;54.64
48156;BME280;35568;48.104;11.782;2023-07-16T05:57:01;95606.52;;;21.60;54.33
48156;BME280;35568;48.104;11.782;2023-07-16T05:59:29;95600.64;;;22.05;54.48
48156;BME280;35568;48.104;11.782;2023-07-16T06:01:56;95609.32;;;21.72;53.74
48156;BME280;35568;48.104;11.782;2023-07-16T06:04:23;95611.29;;;22.11;53.82
48156;BME280;35568;48.104;11.782;2023-07-16T06:06:50;95615.33;;;21.68;54.31
48156;BME280;35568;48.104;11.782;2023-07-16T06:09:17;95620.40;;;21.73;53.64
48156;BME280;35568;48.104;11.782;2023-07-16T06:11:46;95625.82;;;21.86;54.58
48156;BME280;35568;48.104;11.782;2023-07-16T06:14:13;95627.33;;;21.53;54.01
48156;BME280;35568;48.104;11.782;2023-07-16T06:16:40;95633.00;;;22.00;53.48
48156;BME280;35568;48.104;11.782;2023-07-16T06:19:07;95635.20;;;22.04;53.48
48156;BME280;35568;48.104;11.782;2023-07-16T06:21:35;95631.81;;;22.14;53.67
48156;BME280;35568;48.104;11.782;2023-07-16T06:24:03;95624.37;;;21.78;53.42
48156;BME280;35568;48.104;11.782;2023-07-16T06:26:32;95629.24;;;22.21;53.11
48156;BME280;35568;48.104;11.782;2023-07-16T06:29:00;95627.66;;;22.38;52.78
48156;BME280;35568;48.104;11.782;2023-07-16T06:31:28;95632.47;;;22.40;52.69
48156;BME280;35568;48.104;11.782;2023-07-16T06:33:56;95636.83;;;22.47;52.88
48156;BME280;35568;48.104;11.782;2023-07-16T06:36:23;95640.33;;;22.52;52.91
48156;BME280;35568;48.104;11.782;2023-07-16T06:38:50;95645.08;;;22.26;52.58
48156;BME280;35568;48.104;11.782;2023-07-16T06:41:19;95651.06;;;22.36;52.29
48156;BME280;35568;48.104;11.782;2023-07-16T06:43:46;95651.37;;;22.48;52.18
48156;BME280;35568;48.104;11.782;2023-07-16T06:46:13;95656.85;;;22.75;51.89
48156;BME280;35568;48.104;11.782;2023-07-16T06:48:41;95652.72;;;23.02;51.53
48156;BME280;35568;48.104;11.782;2023-07-16T06:51:08;95650.50;;;23.09;51.29
48156;BME280;35568;48.104;11.782;2023-07-16T06:53:35;95651.86;;;23.28;51.24
48156;BME280;35568;48.104;11.782;2023-07-16T06:56:02;95649.96;;;23.15;51.11
48156;BME280;35568;48.104;11.782;2023-07-16T06:58:31;95652.03;;;22.70;51.61
48156;BME280;35568;48.104;11.782;2023-07-16T07:00:58;95649.57;;;23.08;51.65
48156;BME280;35568;48.104;11.782;2023-07-16T07:03:28;95652.05;;;23.17;50.65
48156;BME280;35568;48.104;11.782;2023-07-16T07:05:55;95655.16;;;23.97;50.27
48156;BME280;35568;48.104;11.782;2023-07-16T07:08:22;95653.37;;;24.87;49.32
48156;BME280;35568;48.104;11.782;2023-07-16T07:10:49;95654.27;;;25.39;47.66
48156;BME280;35568;48.104;11.782;2023-07-16T07:13:16;95650.61;;;25.89;46.77
48156;BME280;35568;48.104;11.782;2023-07-16T07:15:43;95653.74;;;25.96;46.99
48156;BME280;35568;48.104;11.782;2023-07-16T07:18:10;95655.38;;;25.31;48.08
48156;BME280;35568;48.104;11.782;2023-07-16T07:20:37;95654.33;;;25.10;47.94
48156;BME280;35568;48.104;11.782;2023-07-16T07:23:04;95654.37;;;25.18;47.94
48156;BME280;35568;48.104;11.782;2023-07-16T07:25:31;95655.48;;;25.36;47.99
48156;BME280;35568;48.104;11.782;2023-07-16T07:27:58;95653.02;;;24.80;48.19
48156;BME280;35568;48.104;11.782;2023-07-16T07:30:25;95649.93;;;25.44;47.98
48156;BME280;35568;48.104;11.782;2023-07-16T07:32:51;95647.69;;;25.50;47.77
48156;BME280;35568;48.104;11.782;2023-07-16T07:35:18;95649.29;;;25.62;47.40
48156;BME280;35568;48.104;11.782;2023-07-16T07:37:45;95651.01;;;26.27;47.46
48156;BME280;35568;48.104;11.782;2023-07-16T07:40:12;95649.83;;;25.74;46.73
48156;BME280;35568;48.104;11.782;2023-07-16T07:42:39;95649.30;;;25.28;46.31
48156;BME280;35568;48.104;11.782;2023-07-16T07:45:07;95648.87;;;25.34;46.35
48156;BME280;35568;48.104;11.782;2023-07-16T07:47:34;95644.97;;;25.20;46.37
48156;BME280;35568;48.104;11.782;2023-07-16T07:50:01;95640.81;;;25.44;46.27
48156;BME280;35568;48.104;11.782;2023-07-16T07:52:27;95635.07;;;25.44;46.81
48156;BME280;35568;48.104;11.782;2023-07-16T07:54:54;95634.46;;;25.67;46.64
48156;BME280;35568;48.104;11.782;2023-07-16T07:57:21;95636.72;;;25.83;46.47
48156;BME280;35568;48.104;11.782;2023-07-16T07:59:48;95637.77;;;25.84;45.95
48156;BME280;35568;48.104;11.782;2023-07-16T08:02:15;95640.47;;;26.09;45.21
48156;BME280;35568;48.104;11.782;2023-07-16T08:04:42;95637.90;;;25.89;45.58
48156;BME280;35568;48.104;11.782;2023-07-16T08:07:08;95639.22;;;26.13;45.07
48156;BME280;35568;48.104;11.782;2023-07-16T08:09:37;95635.51;;;25.86;44.47
48156;BME280;35568;48.104;11.782;2023-07-16T08:12:05;95636.03;;;25.91;43.78
48156;BME280;35568;48.104;11.782;2023-07-16T08:14:32;95635.21;;;26.27;43.18
48156;BME280;35568;48.104;11.782;2023-07-16T08:16:59;95633.51;;;25.83;43.87
48156;BME280;35568;48.104;11.782;2023-07-16T08:19:25;95633.36;;;26.25;43.71
48156;BME280;35568;48.104;11.782;2023-07-16T08:21:52;95634.09;;;26.22;44.43
48156;BME280;35568;48.104;11.782;2023-07-16T08:24:19;95626.36;;;26.55;41.90
48156;BME280;35568;48.104;11.782;2023-07-16T08:26:46;95623.65;;;26.56;42.54
48156;BME280;35568;48.104;11.782;2023-07-16T08:29:13;95617.97;;;26.65;42.39
48156;BME280;35568;48.104;11.782;2023-07-16T08:31:39;95617.01;;;26.40;42.81
48156;BME280;35568;48.104;11.782;2023-07-16T08:34:06;95614.80;;;26.72;43.14
48156;BME280;35568;48.104;11.782;2023-07-16T08:36:33;95613.30;;;26.25;43.35
48156;BME280;35568;48.104;11.782;2023-07-16T08:39:01;95609.26;;;26.47;43.47
48156;BME280;35568;48.104;11.782;2023-07-16T08:41:28;95604.85;;;26.56;43.21
48156;BME280;35568;48.104;11.782;2023-07-16T08:43:56;95606.07;;;27.36;42.14
48156;BME280;35568;48.104;11.782;2023-07-16T08:46:24;95605.55;;;28.48;39.05
48156;BME280;35568;48.104;11.782;2023-07-16T08:48:51;95599.38;;;29.17;37.65
48156;BME280;35568;48.104;11.782;2023-07-16T08:51:21;95604.25;;;29.68;36.46
48156;BME280;35568;48.104;11.782;2023-07-16T08:53:47;95602.77;;;30.78;35.50
48156;BME280;35568;48.104;11.782;2023-07-16T08:56:15;95597.85;;;31.45;33.66
48156;BME280;35568;48.104;11.782;2023-07-16T08:58:43;95596.53;;;29.74;34.44
48156;BME280;35568;48.104;11.782;2023-07-16T09:01:10;95599.27;;;29.99;35.10
48156;BME280;35568;48.104;11.782;2023-07-16T09:03:38;95604.92;;;29.47;34.50
48156;BME280;35568;48.104;11.782;2023-07-16T09:06:05;95605.29;;;29.25;35.52
48156;BME280;35568;48.104;11.782;2023-07-16T09:08:32;95608.85;;;28.75;36.11
48156;BME280;35568;48.104;11.782;2023-07-16T09:10:59;95609.64;;;28.44;37.39
48156;BME280;35568;48.104;11.782;2023-07-16T09:13:26;95609.06;;;28.53;36.66
48156;BME280;35568;48.104;11.782;2023-07-16T09:15:53;95606.74;;;28.33;36.84
48156;BME280;35568;48.104;11.782;2023-07-16T09:18:20;95602.66;;;27.95;38.16
48156;BME280;35568;48.104;11.782;2023-07-16T09:20:48;95599.67;;;28.15;38.39
48156;BME280;35568;48.104;11.782;2023-07-16T09:23:17;95597.24;;;28.67;38.14
48156;BME280;35568;48.104;11.782;2023-07-16T09:25:44;95590.41;;;29.02;37.37
48156;BME280;35568;48.104;11.782;2023-07-16T09:28:12;95585.22;;;30.66;36.41
48156;BME280;35568;48.104;11.782;2023-07-16T09:30:39;95578.20;;;31.82;33.46
48156;BME280;35568;48.104;11.782;2023-07-16T09:33:10;95579.98;;;32.13;31.83
48156;BME280;35568;48.104;11.782;2023-07-16T09:35:37;95579.17;;;32.28;31.05
48156;BME280;35568;48.104;11.782;2023-07-16T09:38:04;95579.63;;;31.52;32.31
48156;BME280;35568;48.104;11.782;2023-07-16T09:40:32;95578.28;;;31.35;33.11
48156;BME280;35568;48.104;11.782;2023-07-16T09:43:00;95577.67;;;30.43;33.96
48156;BME280;35568;48.104;11.782;2023-07-16T09:45:28;95576.41;;;30.23;34.88
48156;BME280;35568;48.104;11.782;2023-07-16T09:47:55;95577.15;;;29.14;36.07
48156;BME280;35568;48.104;11.782;2023-07-16T09:50:23;95576.03;;;28.60;35.89
48156;BME280;35568;48.104;11.782;2023-07-16T09:52:51;95576.15;;;28.12;37.32
48156;BME280;35568;48.104;11.782;2023-07-16T09:55:18;95572.52;;;28.11;37.55
48156;BME280;35568;48.104;11.782;2023-07-16T09:57:49;95564.91;;;28.51;37.17
48156;BME280;35568;48.104;11.782;2023-07-16T10:00:17;95560.95;;;30.24;34.87
48156;BME280;35568;48.104;11.782;2023-07-16T10:02:44;95554.17;;;30.77;34.05
48156;BME280;35568;48.104;11.782;2023-07-16T10:05:13;95552.41;;;30.65;33.96
48156;BME280;35568;48.104;11.782;2023-07-16T10:07:40;95548.34;;;31.15;33.23
48156;BME280;35568;48.104;11.782;2023-07-16T10:10:09;95548.34;;;30.72;33.62
48156;BME280;35568;48.104;11.782;2023-07-16T10:12:37;95550.96;;;32.15;33.11
48156;BME280;35568;48.104;11.782;2023-07-16T10:15:05;95545.20;;;32.28;31.07
48156;BME280;35568;48.104;11.782;2023-07-16T10:17:33;95540.39;;;32.33;31.02
48156;BME280;35568;48.104;11.782;2023-07-16T10:20:02;95540.24;;;32.39;30.79
48156;BME280;35568;48.104;11.782;2023-07-16T10:22:34;95543.27;;;32.22;30.07
48156;BME280;35568;48.104;11.782;2023-07-16T10:25:01;95544.46;;;31.55;30.90
48156;BME280;35568;48.104;11.782;2023-07-16T10:27:30;95544.27;;;31.11;32.02
48156;BME280;35568;48.104;11.782;2023-07-16T10:29:58;95543.36;;;31.08;30.97
48156;BME280;35568;48.104;11.782;2023-07-16T10:32:27;95541.43;;;31.22;30.71
48156;BME280;35568;48.104;11.782;2023-07-16T10:34:55;95538.72;;;32.60;28.71
48156;BME280;35568;48.104;11.782;2023-07-16T10:37:22;95530.16;;;33.80;27.95
48156;BME280;35568;48.104;11.782;2023-07-16T10:39:51;95531.10;;;34.62;27.33
48156;BME280;35568;48.104;11.782;2023-07-16T10:42:19;95536.35;;;33.47;27.31
48156;BME280;35568;48.104;11.782;2023-07-16T10:44:48;95535.09;;;33.95;27.61
48156;BME280;35568;48.104;11.782;2023-07-16T10:47:20;95530.90;;;34.99;26.75
48156;BME280;35568;48.104;11.782;2023-07-16T10:49:47;95526.28;;;35.33;26.20
48156;BME280;35568;48.104;11.782;2023-07-16T10:52:14;95524.35;;;35.61;25.76
48156;BME280;35568;48.104;11.782;2023-07-16T10:54:41;95520.45;;;35.86;25.14
48156;BME280;35568;48.104;11.782;2023-07-16T10:57:08;95518.50;;;36.06;25.34
48156;BME280;35568;48.104;11.782;2023-07-16T10:59:37;95517.98;;;35.97;25.71
48156;BME280;35568;48.104;11.782;2023-07-16T11:02:05;95516.94;;;34.83;26.67
48156;BME280;35568;48.104;11.782;2023-07-16T11:04:34;95517.57;;;34.20;27.43
48156;BME280;35568;48.104;11.782;2023-07-16T11:07:05;95517.00;;;33.99;27.45
48156;BME280;35568;48.104;11.782;2023-07-16T11:09:32;95519.23;;;33.93;27.62
48156;BME280;35568;48.104;11.782;2023-07-16T11:12:06;95518.63;;;33.58;28.44
48156;BME280;35568;48.104;11.782;2023-07-16T11:14:33;95522.54;;;32.81;28.42
48156;BME280;35568;48.104;11.782;2023-07-16T11:17:04;95524.00;;;32.75;27.88
48156;BME280;35568;48.104;11.782;2023-07-16T11:19:31;95524.80;;;32.75;28.02
48156;BME280;35568;48.104;11.782;2023-07-16T11:21:59;95524.51;;;32.63;28.71
48156;BME280;35568;48.104;11.782;2023-07-16T11:24:27;95520.49;;;32.80;29.02
48156;BME280;35568;48.104;11.782;2023-07-16T11:26:55;95515.50;;;33.83;28.23
48156;BME280;35568;48.104;11.782;2023-07-16T11:29:21;95510.44;;;35.00;26.89
48156;BME280;35568;48.104;11.782;2023-07-16T11:31:49;95503.49;;;35.92;25.23
48156;BME280;35568;48.104;11.782;2023-07-16T11:34:16;95503.25;;;36.84;24.50
48156;BME280;35568;48.104;11.782;2023-07-16T11:36:43;95498.91;;;37.33;24.26
48156;BME280;35568;48.104;11.782;2023-07-16T11:39:11;95483.97;;;36.89;23.81
48156;BME280;35568;48.104;11.782;2023-07-16T11:41:38;95481.51;;;36.41;23.81
48156;BME280;35568;48.104;11.782;2023-07-16T11:44:07;95475.90;;;36.01;24.79
48156;BME280;35568;48.104;11.782;2023-07-16T11:46:34;95476.25;;;36.32;25.12
48156;BME280;35568;48.104;11.782;2023-07-16T11:49:01;95480.72;;;36.80;25.04
48156;BME280;35568;48.104;11.782;2023-07-16T11:51:29;95483.21;;;37.91;23.24
48156;BME280;35568;48.104;11.782;2023-07-16T11:53:56;95491.57;;;37.37;23.32
48156;BME280;35568;48.104;11.782;2023-07-16T11:56:23;95493.94;;;35.62;24.81
48156;BME280;35568;48.104;11.782;2023-07-16T11:58:50;95488.34;;;34.65;25.45
48156;BME280;35568;48.104;11.782;2023-07-16T12:01:17;95481.48;;;34.50;26.33
48156;BME280;35568;48.104;11.782;2023-07-16T12:03:44;95474.77;;;34.19;26.72
48156;BME280;35568;48.104;11.782;2023-07-16T12:06:10;95472.24;;;33.84;26.98
48156;BME280;35568;48.104;11.782;2023-07-16T12:08:37;95465.16;;;34.16;26.40
48156;BME280;35568;48.104;11.782;2023-07-16T12:11:04;95466.09;;;33.57;26.66
48156;BME280;35568;48.104;11.782;2023-07-16T12:13:31;95465.79;;;34.00;26.64
48156;BME280;35568;48.104;11.782;2023-07-16T12:15:58;95467.19;;;34.10;27.22
48156;BME280;35568;48.104;11.782;2023-07-16T12:18:24;95465.17;;;34.39;26.47
48156;BME280;35568;48.104;11.782;2023-07-16T12:20:51;95464.32;;;34.24;26.86
48156;BME280;35568;48.104;11.782;2023-07-16T12:23:18;95463.18;;;34.93;25.90
48156;BME280;35568;48.104;11.782;2023-07-16T12:25:45;95463.01;;;35.03;25.27
48156;BME280;35568;48.104;11.782;2023-07-16T12:28:11;95453.08;;;35.23;24.93
48156;BME280;35568;48.104;11.782;2023-07-16T12:30:39;95451.68;;;35.40;25.43
48156;BME280;35568;48.104;11.782;2023-07-16T12:33:06;95457.23;;;34.92;26.30
48156;BME280;35568;48.104;11.782;2023-07-16T12:35:33;95453.88;;;33.77;26.64
48156;BME280;35568;48.104;11.782;2023-07-16T12:38:00;95446.18;;;34.27;26.82
48156;BME280;35568;48.104;11.782;2023-07-16T12:40:29;95450.36;;;34.10;27.09
48156;BME280;35568;48.104;11.782;2023-07-16T12:42:56;95446.40;;;33.86;27.12
48156;BME280;35568;48.104;11.782;2023-07-16T12:45:23;95447.81;;;33.86;27.91
48156;BME280;35568;48.104;11.782;2023-07-16T12:47:49;95451.81;;;33.36;28.01
48156;BME280;35568;48.104;11.782;2023-07-16T12:50:16;95453.64;;;33.09;28.60
48156;BME280;35568;48.104;11.782;2023-07-16T12:52:43;95454.19;;;32.63;28.14